Hikarimaru No.17 — JD2956 — position and weather

sailwx.info

Track history (hours):
 
Tides and Currents Weather Stations Pressure Air Temp Water Temp Dewpoint Dewpoint Depression Visibility Wind Speed Wind Dir Waves Ship Positions

Hikarimaru No.17

Last reported at 2015-Mar-26 10:14 UTC. Time now 2015-Mar-28 18:51 UTC.
Position N 33°60' E 135°00'.

Length 105 m; draft 5.5 m.

Type: Tanker. MMSI: 431000984.

Date/timePositionNaut miles runAvg speedWind from/ knotsBaromVisibWave heightAir tempDewpointWater temp
2015-Mar-26 10:14N 33°60' E 135°00'913.8
2015-Mar-26 09:33N 34°08' E 135°05'3 2.9
2015-Mar-26 08:32N 34°10' E 135°08'0 0.1
2015-Mar-26 07:32N 34°10' E 135°08'0 0.0
2015-Mar-26 06:29N 34°10' E 135°08'0 0.0
2015-Mar-26 05:32N 34°10' E 135°08'4 3.8
2015-Mar-26 04:22N 34°07' E 135°04'4 0.6
2015-Mar-25 21:33N 34°03' E 135°03'8 7.6
2015-Mar-25 20:33N 34°10' E 135°08'0 0.0
2015-Mar-25 19:32N 34°10' E 135°08'0 0.0
2015-Mar-25 18:33N 34°10' E 135°08'0 0.0
2015-Mar-25 17:32N 34°10' E 135°08'0 0.0
2015-Mar-25 16:32N 34°10' E 135°08'0 0.0
2015-Mar-25 15:33N 34°10' E 135°08'0 0.0
2015-Mar-25 14:32N 34°10' E 135°08'0 0.0
2015-Mar-25 13:32N 34°10' E 135°08'0 0.0
2015-Mar-25 12:32N 34°10' E 135°08'0 0.0
2015-Mar-25 11:32N 34°10' E 135°08'0 0.0
2015-Mar-25 10:32N 34°10' E 135°08'0 0.0
2015-Mar-25 09:32N 34°10' E 135°08'7 7.2
2015-Mar-25 08:33N 34°14' E 135°01'1211.5
2015-Mar-25 07:33N 34°25' E 135°07'1413.5
2015-Mar-25 06:32N 34°32' E 135°20'4 1.9
2015-Mar-25 04:30N 34°32' E 135°25'2 0.3
2015-Mar-24 23:32N 34°33' E 135°23'3 2.9
2015-Mar-24 22:25N 34°32' E 135°20'0 0.0
2015-Mar-24 21:13N 34°32' E 135°20'0 0.0
2015-Mar-24 20:19N 34°32' E 135°20'0 0.0
2015-Mar-24 19:31N 34°32' E 135°20'0 0.0
2015-Mar-24 18:31N 34°32' E 135°20'0 0.0
2015-Mar-24 17:19N 34°32' E 135°20'0 0.0
2015-Mar-24 16:25N 34°32' E 135°20'0 0.0
2015-Mar-24 15:25N 34°32' E 135°20'0 0.0
2015-Mar-24 14:31N 34°32' E 135°20'0 0.0
2015-Mar-24 13:31N 34°32' E 135°20'0 0.0
2015-Mar-24 12:19N 34°32' E 135°20'0 0.0
2015-Mar-24 10:25N 34°32' E 135°20'0 0.0
2015-Mar-24 09:13N 34°32' E 135°20'0 0.1
2015-Mar-24 08:33N 34°32' E 135°20'1110.8
2015-Mar-24 07:33N 34°25' E 135°09'1111.3
2015-Mar-24 06:33N 34°17' E 134°59'1010.2
2015-Mar-24 05:33N 34°10' E 135°08'3 2.8
2015-Mar-24 04:33N 34°08' E 135°05'5 0.7
2015-Mar-23 21:31N 34°03' E 135°03'8 8.1
2015-Mar-23 20:33N 34°10' E 135°08'0 0.0
2015-Mar-23 19:33N 34°10' E 135°08'0 0.0
2015-Mar-23 18:33N 34°10' E 135°08'0 0.0
2015-Mar-23 17:33N 34°10' E 135°08'0 0.0
2015-Mar-23 16:33N 34°10' E 135°08'0 0.0
2015-Mar-23 15:33N 34°10' E 135°08'0 0.0
2015-Mar-23 14:33N 34°10' E 135°08'0 0.0
2015-Mar-23 13:33N 34°10' E 135°08'0 0.0
2015-Mar-23 12:33N 34°10' E 135°08'0 0.0
2015-Mar-23 11:33N 34°10' E 135°08'0 0.1
2015-Mar-23 10:33N 34°10' E 135°08'0 0.0
2015-Mar-23 09:33N 34°10' E 135°08'10 9.3
2015-Mar-23 08:32N 34°16' E 134°59'1312.9
2015-Mar-23 07:33N 34°26' E 135°08'1413.3
2015-Mar-23 06:32N 34°33' E 135°22'3 1.2
2015-Mar-23 04:15N 34°32' E 135°25'0 0.0
2015-Mar-23 03:33N 34°32' E 135°25'0 0.0
2015-Mar-23 02:27N 34°32' E 135°25'0 0.0
2015-Mar-23 01:32N 34°32' E 135°25'0 0.0
2015-Mar-23 00:28N 34°32' E 135°25'2 2.0
2015-Mar-22 23:32N 34°33' E 135°23'3 3.3
2015-Mar-22 22:32N 34°32' E 135°19'0 0.0
2015-Mar-22 21:20N 34°32' E 135°19'0 0.1
2015-Mar-22 20:26N 34°32' E 135°19'0 0.0
2015-Mar-22 19:32N 34°32' E 135°19'0 0.0
2015-Mar-22 18:26N 34°32' E 135°19'0 0.0
2015-Mar-22 17:26N 34°32' E 135°19'0 0.1
2015-Mar-22 16:32N 34°32' E 135°19'0 0.0
2015-Mar-22 15:26N 34°32' E 135°19'0 0.0
2015-Mar-22 14:20N 34°32' E 135°19'0 0.0
2015-Mar-22 13:32N 34°32' E 135°19'0 0.1
2015-Mar-22 12:32N 34°32' E 135°19'0 0.0
2015-Mar-22 11:32N 34°32' E 135°19'0 0.1
2015-Mar-22 10:32N 34°32' E 135°19'0 0.0
2015-Mar-22 09:32N 34°32' E 135°19'0 0.0
2015-Mar-22 08:20N 34°32' E 135°19'0 0.0
2015-Mar-22 07:32N 34°32' E 135°19'0 0.0
2015-Mar-22 06:14N 34°32' E 135°19'0 0.0
2015-Mar-22 05:26N 34°32' E 135°19'0 0.0
2015-Mar-22 04:20N 34°32' E 135°19'0 0.0
2015-Mar-22 03:32N 34°32' E 135°19'0 0.0
2015-Mar-22 02:32N 34°32' E 135°19'0 0.0
2015-Mar-22 01:14N 34°32' E 135°19'0 0.0
2015-Mar-22 00:32N 34°32' E 135°19'0 0.0
2015-Mar-21 23:32N 34°32' E 135°19'0 0.0
2015-Mar-21 22:26N 34°32' E 135°19'0 0.0
2015-Mar-21 21:32N 34°32' E 135°19'0 0.0
2015-Mar-21 20:32N 34°32' E 135°19'0 0.0
2015-Mar-21 19:32N 34°32' E 135°19'0 0.0
2015-Mar-21 18:20N 34°32' E 135°19'0 0.0
2015-Mar-21 17:32N 34°32' E 135°19'0 0.0
2015-Mar-21 16:32N 34°32' E 135°19'0 0.0
2015-Mar-21 15:32N 34°32' E 135°19'0 0.0
2015-Mar-21 14:14N 34°32' E 135°19'0 0.0
2015-Mar-21 13:32N 34°32' E 135°19'0 0.0
2015-Mar-21 12:32N 34°32' E 135°19'0 0.0
2015-Mar-21 11:26N 34°32' E 135°19'0 0.0
2015-Mar-21 10:20N 34°32' E 135°19'0 0.1
2015-Mar-21 09:26N 34°32' E 135°19'0 0.0
2015-Mar-21 08:32N 34°32' E 135°19'0 0.0
2015-Mar-21 07:32N 34°32' E 135°19'0 0.0
2015-Mar-21 06:08N 34°32' E 135°19'0 0.0
2015-Mar-21 05:32N 34°32' E 135°19'1 1.4
2015-Mar-21 04:32N 34°32' E 135°18'1412.4
2015-Mar-21 03:26N 34°23' E 135°05'910.2
2015-Mar-21 02:33N 34°14' E 135°00'8 7.7
2015-Mar-21 01:32N 34°10' E 135°08'0 0.0
2015-Mar-21 00:32N 34°10' E 135°08'0 0.0
2015-Mar-20 23:32N 34°10' E 135°08'0 0.0
2015-Mar-20 22:32N 34°10' E 135°08'0 0.0
2015-Mar-20 21:32N 34°10' E 135°08'0 0.0
2015-Mar-20 20:29N 34°10' E 135°08'0 0.0
2015-Mar-20 19:32N 34°10' E 135°08'0 0.0
2015-Mar-20 18:32N 34°10' E 135°08'0 0.0
2015-Mar-20 17:29N 34°10' E 135°08'0 0.0
2015-Mar-20 16:32N 34°10' E 135°08'0 0.0
2015-Mar-20 15:32N 34°10' E 135°08'0 0.0
2015-Mar-20 14:23N 34°10' E 135°08'0 0.0
2015-Mar-20 13:32N 34°10' E 135°08'0 0.0
2015-Mar-20 12:32N 34°10' E 135°08'0 0.0
2015-Mar-20 11:32N 34°10' E 135°08'0 0.1
2015-Mar-20 10:32N 34°10' E 135°08'0 0.0
2015-Mar-20 09:32N 34°10' E 135°08'0 0.0
2015-Mar-20 08:32N 34°10' E 135°08'0 0.1
2015-Mar-20 07:34N 34°10' E 135°08'3 2.5
2015-Mar-20 06:33N 34°09' E 135°11'0 0.0
2015-Mar-20 05:33N 34°09' E 135°11'0 0.0
2015-Mar-20 04:33N 34°09' E 135°11'2 2.0
2015-Mar-20 03:31N 34°09' E 135°09'0 0.1
2015-Mar-20 02:34N 34°09' E 135°09'0 0.0
2015-Mar-20 01:34N 34°09' E 135°09'0 0.0
2015-Mar-20 00:31N 34°09' E 135°09'0 0.1
2015-Mar-19 23:34N 34°09' E 135°09'0 0.0
2015-Mar-19 22:34N 34°09' E 135°09'0 0.0
2015-Mar-19 21:31N 34°09' E 135°09'0 0.0
2015-Mar-19 20:33N 34°09' E 135°09'0 0.0
2015-Mar-19 19:33N 34°09' E 135°09'0 0.0
2015-Mar-19 18:34N 34°09' E 135°09'0 0.0
2015-Mar-19 17:34N 34°09' E 135°09'0 0.0
2015-Mar-19 16:34N 34°09' E 135°09'0 0.1
2015-Mar-19 15:33N 34°09' E 135°09'0 0.0
2015-Mar-19 14:34N 34°09' E 135°09'0 0.0
2015-Mar-19 13:33N 34°09' E 135°09'0 0.0
2015-Mar-19 12:21N 34°09' E 135°09'0 0.0
2015-Mar-19 11:33N 34°09' E 135°09'0 0.0
2015-Mar-19 10:33N 34°09' E 135°09'0 0.0
2015-Mar-19 09:27N 34°09' E 135°09'0 0.1
2015-Mar-19 08:34N 34°09' E 135°09'1 1.4
2015-Mar-19 07:33N 34°10' E 135°08'1211.6
2015-Mar-19 06:33N 34°20' E 134°59'1313.4
2015-Mar-19 05:33N 34°28' E 135°12'1212.0
2015-Mar-19 04:33N 34°33' E 135°25'1 0.2
2015-Mar-19 00:09N 34°33' E 135°25'3 4.5
2015-Mar-18 23:33N 34°33' E 135°22'2 1.7
2015-Mar-18 22:24N 34°32' E 135°20'0 0.0
2015-Mar-18 21:24N 34°32' E 135°20'0 0.0
2015-Mar-18 20:30N 34°32' E 135°20'0 0.0
2015-Mar-18 18:24N 34°32' E 135°20'0 0.0
2015-Mar-18 17:24N 34°32' E 135°20'0 0.1
2015-Mar-18 16:30N 34°32' E 135°20'0 0.0
2015-Mar-18 15:30N 34°32' E 135°20'0 0.1
2015-Mar-18 14:30N 34°32' E 135°20'0 0.0
2015-Mar-18 13:24N 34°32' E 135°20'0 0.0
2015-Mar-18 12:30N 34°32' E 135°20'0 0.0
2015-Mar-18 11:18N 34°32' E 135°20'0 0.0
2015-Mar-18 10:18N 34°32' E 135°20'0 0.1
2015-Mar-18 09:30N 34°32' E 135°20'0 0.0
2015-Mar-18 08:30N 34°32' E 135°20'0 0.1
2015-Mar-18 07:21N 34°32' E 135°20'1011.9
2015-Mar-18 06:33N 34°27' E 135°10'1411.9
2015-Mar-18 05:21N 34°16' E 134°59'911.8
2015-Mar-18 04:33N 34°10' E 135°08'0 0.2
2015-Mar-18 03:30N 34°10' E 135°08'0 0.0
2015-Mar-18 02:30N 34°10' E 135°08'0 0.0
2015-Mar-18 01:33N 34°10' E 135°08'0 0.0
2015-Mar-18 00:33N 34°10' E 135°08'0 0.1
2015-Mar-17 23:33N 34°10' E 135°08'0 0.1
2015-Mar-17 22:33N 34°10' E 135°08'0 0.1
2015-Mar-17 21:33N 34°10' E 135°08'0 0.0
2015-Mar-17 20:33N 34°10' E 135°08'0 0.0
2015-Mar-17 19:33N 34°10' E 135°08'0 0.1
2015-Mar-17 18:33N 34°10' E 135°08'0 0.0
2015-Mar-17 17:30N 34°10' E 135°08'0 0.1
2015-Mar-17 16:33N 34°10' E 135°08'0 0.0
2015-Mar-17 15:33N 34°10' E 135°08'0 0.0
2015-Mar-17 14:33N 34°10' E 135°08'0 0.0
2015-Mar-17 13:33N 34°10' E 135°08'0 0.0
2015-Mar-17 12:33N 34°10' E 135°08'0 0.1
2015-Mar-17 11:33N 34°10' E 135°08'0 0.1
2015-Mar-17 10:33N 34°10' E 135°08'0 0.0
2015-Mar-17 09:30N 34°10' E 135°08'6 6.1
2015-Mar-17 08:33N 34°06' E 135°03'4 0.6
2015-Mar-17 02:06N 34°02' E 135°03'712.4
2015-Mar-17 01:34N 34°08' E 135°05'2 1.7
2015-Mar-17 00:33N 34°09' E 135°07'0 0.0
2015-Mar-16 23:33N 34°09' E 135°07'0 0.1
2015-Mar-16 22:24N 34°09' E 135°07'0 0.0
2015-Mar-16 21:33N 34°09' E 135°07'0 0.0
2015-Mar-16 20:33N 34°09' E 135°07'0 0.0
2015-Mar-16 19:33N 34°09' E 135°07'0 0.1
2015-Mar-16 18:33N 34°09' E 135°07'1010.1
2015-Mar-16 17:34N 34°16' E 134°59'1312.9
2015-Mar-16 16:33N 34°29' E 135°02'9 8.7
2015-Mar-16 15:33N 34°36' E 134°55'  
Track history (hours):
 
Tides and Currents Weather Stations Pressure Air Temp Water Temp Dewpoint Dewpoint Depression Visibility Wind Speed Wind Dir Waves Ship Positions

Hikarimaru No.17

Last reported at 2015-Mar-26 10:14 UTC. Time now 2015-Mar-28 18:51 UTC.
Position N 33°60' E 135°00'.

Length 105 m; draft 5.5 m.

Type: Tanker. MMSI: 431000984.

Date/timePositionNaut miles runAvg speedWind from/ knotsBaromVisibWave heightAir tempDewpointWater temp
2015-Mar-26 10:14N 33°60' E 135°00'913.8
2015-Mar-26 09:33N 34°08' E 135°05'3 2.9
2015-Mar-26 08:32N 34°10' E 135°08'0 0.1
2015-Mar-26 07:32N 34°10' E 135°08'0 0.0
2015-Mar-26 06:29N 34°10' E 135°08'0 0.0
2015-Mar-26 05:32N 34°10' E 135°08'4 3.8
2015-Mar-26 04:22N 34°07' E 135°04'4 0.6
2015-Mar-25 21:33N 34°03' E 135°03'8 7.6
2015-Mar-25 20:33N 34°10' E 135°08'0 0.0
2015-Mar-25 19:32N 34°10' E 135°08'0 0.0
2015-Mar-25 18:33N 34°10' E 135°08'0 0.0
2015-Mar-25 17:32N 34°10' E 135°08'0 0.0
2015-Mar-25 16:32N 34°10' E 135°08'0 0.0
2015-Mar-25 15:33N 34°10' E 135°08'0 0.0
2015-Mar-25 14:32N 34°10' E 135°08'0 0.0
2015-Mar-25 13:32N 34°10' E 135°08'0 0.0
2015-Mar-25 12:32N 34°10' E 135°08'0 0.0
2015-Mar-25 11:32N 34°10' E 135°08'0 0.0
2015-Mar-25 10:32N 34°10' E 135°08'0 0.0
2015-Mar-25 09:32N 34°10' E 135°08'7 7.2
2015-Mar-25 08:33N 34°14' E 135°01'1211.5
2015-Mar-25 07:33N 34°25' E 135°07'1413.5
2015-Mar-25 06:32N 34°32' E 135°20'4 1.9
2015-Mar-25 04:30N 34°32' E 135°25'2 0.3
2015-Mar-24 23:32N 34°33' E 135°23'3 2.9
2015-Mar-24 22:25N 34°32' E 135°20'0 0.0
2015-Mar-24 21:13N 34°32' E 135°20'0 0.0
2015-Mar-24 20:19N 34°32' E 135°20'0 0.0
2015-Mar-24 19:31N 34°32' E 135°20'0 0.0
2015-Mar-24 18:31N 34°32' E 135°20'0 0.0
2015-Mar-24 17:19N 34°32' E 135°20'0 0.0
2015-Mar-24 16:25N 34°32' E 135°20'0 0.0
2015-Mar-24 15:25N 34°32' E 135°20'0 0.0
2015-Mar-24 14:31N 34°32' E 135°20'0 0.0
2015-Mar-24 13:31N 34°32' E 135°20'0 0.0
2015-Mar-24 12:19N 34°32' E 135°20'0 0.0
2015-Mar-24 10:25N 34°32' E 135°20'0 0.0
2015-Mar-24 09:13N 34°32' E 135°20'0 0.1
2015-Mar-24 08:33N 34°32' E 135°20'1110.8
2015-Mar-24 07:33N 34°25' E 135°09'1111.3
2015-Mar-24 06:33N 34°17' E 134°59'1010.2
2015-Mar-24 05:33N 34°10' E 135°08'3 2.8
2015-Mar-24 04:33N 34°08' E 135°05'5 0.7
2015-Mar-23 21:31N 34°03' E 135°03'8 8.1
2015-Mar-23 20:33N 34°10' E 135°08'0 0.0
2015-Mar-23 19:33N 34°10' E 135°08'0 0.0
2015-Mar-23 18:33N 34°10' E 135°08'0 0.0
2015-Mar-23 17:33N 34°10' E 135°08'0 0.0
2015-Mar-23 16:33N 34°10' E 135°08'0 0.0
2015-Mar-23 15:33N 34°10' E 135°08'0 0.0
2015-Mar-23 14:33N 34°10' E 135°08'0 0.0
2015-Mar-23 13:33N 34°10' E 135°08'0 0.0
2015-Mar-23 12:33N 34°10' E 135°08'0 0.0
2015-Mar-23 11:33N 34°10' E 135°08'0 0.1
2015-Mar-23 10:33N 34°10' E 135°08'0 0.0
2015-Mar-23 09:33N 34°10' E 135°08'10 9.3
2015-Mar-23 08:32N 34°16' E 134°59'1312.9
2015-Mar-23 07:33N 34°26' E 135°08'1413.3
2015-Mar-23 06:32N 34°33' E 135°22'3 1.2
2015-Mar-23 04:15N 34°32' E 135°25'0 0.0
2015-Mar-23 03:33N 34°32' E 135°25'0 0.0
2015-Mar-23 02:27N 34°32' E 135°25'0 0.0
2015-Mar-23 01:32N 34°32' E 135°25'0 0.0
2015-Mar-23 00:28N 34°32' E 135°25'2 2.0
2015-Mar-22 23:32N 34°33' E 135°23'3 3.3
2015-Mar-22 22:32N 34°32' E 135°19'0 0.0
2015-Mar-22 21:20N 34°32' E 135°19'0 0.1
2015-Mar-22 20:26N 34°32' E 135°19'0 0.0
2015-Mar-22 19:32N 34°32' E 135°19'0 0.0
2015-Mar-22 18:26N 34°32' E 135°19'0 0.0
2015-Mar-22 17:26N 34°32' E 135°19'0 0.1
2015-Mar-22 16:32N 34°32' E 135°19'0 0.0
2015-Mar-22 15:26N 34°32' E 135°19'0 0.0
2015-Mar-22 14:20N 34°32' E 135°19'0 0.0
2015-Mar-22 13:32N 34°32' E 135°19'0 0.1
2015-Mar-22 12:32N 34°32' E 135°19'0 0.0
2015-Mar-22 11:32N 34°32' E 135°19'0 0.1
2015-Mar-22 10:32N 34°32' E 135°19'0 0.0
2015-Mar-22 09:32N 34°32' E 135°19'0 0.0
2015-Mar-22 08:20N 34°32' E 135°19'0 0.0
2015-Mar-22 07:32N 34°32' E 135°19'0 0.0
2015-Mar-22 06:14N 34°32' E 135°19'0 0.0
2015-Mar-22 05:26N 34°32' E 135°19'0 0.0
2015-Mar-22 04:20N 34°32' E 135°19'0 0.0
2015-Mar-22 03:32N 34°32' E 135°19'0 0.0
2015-Mar-22 02:32N 34°32' E 135°19'0 0.0
2015-Mar-22 01:14N 34°32' E 135°19'0 0.0
2015-Mar-22 00:32N 34°32' E 135°19'0 0.0
2015-Mar-21 23:32N 34°32' E 135°19'0 0.0
2015-Mar-21 22:26N 34°32' E 135°19'0 0.0
2015-Mar-21 21:32N 34°32' E 135°19'0 0.0
2015-Mar-21 20:32N 34°32' E 135°19'0 0.0
2015-Mar-21 19:32N 34°32' E 135°19'0 0.0
2015-Mar-21 18:20N 34°32' E 135°19'0 0.0
2015-Mar-21 17:32N 34°32' E 135°19'0 0.0
2015-Mar-21 16:32N 34°32' E 135°19'0 0.0
2015-Mar-21 15:32N 34°32' E 135°19'0 0.0
2015-Mar-21 14:14N 34°32' E 135°19'0 0.0
2015-Mar-21 13:32N 34°32' E 135°19'0 0.0
2015-Mar-21 12:32N 34°32' E 135°19'0 0.0
2015-Mar-21 11:26N 34°32' E 135°19'0 0.0
2015-Mar-21 10:20N 34°32' E 135°19'0 0.1
2015-Mar-21 09:26N 34°32' E 135°19'0 0.0
2015-Mar-21 08:32N 34°32' E 135°19'0 0.0
2015-Mar-21 07:32N 34°32' E 135°19'0 0.0
2015-Mar-21 06:08N 34°32' E 135°19'0 0.0
2015-Mar-21 05:32N 34°32' E 135°19'1 1.4
2015-Mar-21 04:32N 34°32' E 135°18'1412.4
2015-Mar-21 03:26N 34°23' E 135°05'910.2
2015-Mar-21 02:33N 34°14' E 135°00'8 7.7
2015-Mar-21 01:32N 34°10' E 135°08'0 0.0
2015-Mar-21 00:32N 34°10' E 135°08'0 0.0
2015-Mar-20 23:32N 34°10' E 135°08'0 0.0
2015-Mar-20 22:32N 34°10' E 135°08'0 0.0
2015-Mar-20 21:32N 34°10' E 135°08'0 0.0
2015-Mar-20 20:29N 34°10' E 135°08'0 0.0
2015-Mar-20 19:32N 34°10' E 135°08'0 0.0
2015-Mar-20 18:32N 34°10' E 135°08'0 0.0
2015-Mar-20 17:29N 34°10' E 135°08'0 0.0
2015-Mar-20 16:32N 34°10' E 135°08'0 0.0
2015-Mar-20 15:32N 34°10' E 135°08'0 0.0
2015-Mar-20 14:23N 34°10' E 135°08'0 0.0
2015-Mar-20 13:32N 34°10' E 135°08'0 0.0
2015-Mar-20 12:32N 34°10' E 135°08'0 0.0
2015-Mar-20 11:32N 34°10' E 135°08'0 0.1
2015-Mar-20 10:32N 34°10' E 135°08'0 0.0
2015-Mar-20 09:32N 34°10' E 135°08'0 0.0
2015-Mar-20 08:32N 34°10' E 135°08'0 0.1
2015-Mar-20 07:34N 34°10' E 135°08'3 2.5
2015-Mar-20 06:33N 34°09' E 135°11'0 0.0
2015-Mar-20 05:33N 34°09' E 135°11'0 0.0
2015-Mar-20 04:33N 34°09' E 135°11'2 2.0
2015-Mar-20 03:31N 34°09' E 135°09'0 0.1
2015-Mar-20 02:34N 34°09' E 135°09'0 0.0
2015-Mar-20 01:34N 34°09' E 135°09'0 0.0
2015-Mar-20 00:31N 34°09' E 135°09'0 0.1
2015-Mar-19 23:34N 34°09' E 135°09'0 0.0
2015-Mar-19 22:34N 34°09' E 135°09'0 0.0
2015-Mar-19 21:31N 34°09' E 135°09'0 0.0
2015-Mar-19 20:33N 34°09' E 135°09'0 0.0
2015-Mar-19 19:33N 34°09' E 135°09'0 0.0
2015-Mar-19 18:34N 34°09' E 135°09'0 0.0
2015-Mar-19 17:34N 34°09' E 135°09'0 0.0
2015-Mar-19 16:34N 34°09' E 135°09'0 0.1
2015-Mar-19 15:33N 34°09' E 135°09'0 0.0
2015-Mar-19 14:34N 34°09' E 135°09'0 0.0
2015-Mar-19 13:33N 34°09' E 135°09'0 0.0
2015-Mar-19 12:21N 34°09' E 135°09'0 0.0
2015-Mar-19 11:33N 34°09' E 135°09'0 0.0
2015-Mar-19 10:33N 34°09' E 135°09'0 0.0
2015-Mar-19 09:27N 34°09' E 135°09'0 0.1
2015-Mar-19 08:34N 34°09' E 135°09'1 1.4
2015-Mar-19 07:33N 34°10' E 135°08'1211.6
2015-Mar-19 06:33N 34°20' E 134°59'1313.4
2015-Mar-19 05:33N 34°28' E 135°12'1212.0
2015-Mar-19 04:33N 34°33' E 135°25'1 0.2
2015-Mar-19 00:09N 34°33' E 135°25'3 4.5
2015-Mar-18 23:33N 34°33' E 135°22'2 1.7
2015-Mar-18 22:24N 34°32' E 135°20'0 0.0
2015-Mar-18 21:24N 34°32' E 135°20'0 0.0
2015-Mar-18 20:30N 34°32' E 135°20'0 0.0
2015-Mar-18 18:24N 34°32' E 135°20'0 0.0
2015-Mar-18 17:24N 34°32' E 135°20'0 0.1
2015-Mar-18 16:30N 34°32' E 135°20'0 0.0
2015-Mar-18 15:30N 34°32' E 135°20'0 0.1
2015-Mar-18 14:30N 34°32' E 135°20'0 0.0
2015-Mar-18 13:24N 34°32' E 135°20'0 0.0
2015-Mar-18 12:30N 34°32' E 135°20'0 0.0
2015-Mar-18 11:18N 34°32' E 135°20'0 0.0
2015-Mar-18 10:18N 34°32' E 135°20'0 0.1
2015-Mar-18 09:30N 34°32' E 135°20'0 0.0
2015-Mar-18 08:30N 34°32' E 135°20'0 0.1
2015-Mar-18 07:21N 34°32' E 135°20'1011.9
2015-Mar-18 06:33N 34°27' E 135°10'1411.9
2015-Mar-18 05:21N 34°16' E 134°59'911.8
2015-Mar-18 04:33N 34°10' E 135°08'0 0.2
2015-Mar-18 03:30N 34°10' E 135°08'0 0.0
2015-Mar-18 02:30N 34°10' E 135°08'0 0.0
2015-Mar-18 01:33N 34°10' E 135°08'0 0.0
2015-Mar-18 00:33N 34°10' E 135°08'0 0.1
2015-Mar-17 23:33N 34°10' E 135°08'0 0.1
2015-Mar-17 22:33N 34°10' E 135°08'0 0.1
2015-Mar-17 21:33N 34°10' E 135°08'0 0.0
2015-Mar-17 20:33N 34°10' E 135°08'0 0.0
2015-Mar-17 19:33N 34°10' E 135°08'0 0.1
2015-Mar-17 18:33N 34°10' E 135°08'0 0.0
2015-Mar-17 17:30N 34°10' E 135°08'0 0.1
2015-Mar-17 16:33N 34°10' E 135°08'0 0.0
2015-Mar-17 15:33N 34°10' E 135°08'0 0.0
2015-Mar-17 14:33N 34°10' E 135°08'0 0.0
2015-Mar-17 13:33N 34°10' E 135°08'0 0.0
2015-Mar-17 12:33N 34°10' E 135°08'0 0.1
2015-Mar-17 11:33N 34°10' E 135°08'0 0.1
2015-Mar-17 10:33N 34°10' E 135°08'0 0.0
2015-Mar-17 09:30N 34°10' E 135°08'6 6.1
2015-Mar-17 08:33N 34°06' E 135°03'4 0.6
2015-Mar-17 02:06N 34°02' E 135°03'712.4
2015-Mar-17 01:34N 34°08' E 135°05'2 1.7
2015-Mar-17 00:33N 34°09' E 135°07'0 0.0
2015-Mar-16 23:33N 34°09' E 135°07'0 0.1
2015-Mar-16 22:24N 34°09' E 135°07'0 0.0
2015-Mar-16 21:33N 34°09' E 135°07'0 0.0
2015-Mar-16 20:33N 34°09' E 135°07'0 0.0
2015-Mar-16 19:33N 34°09' E 135°07'0 0.1
2015-Mar-16 18:33N 34°09' E 135°07'1010.1
2015-Mar-16 17:34N 34°16' E 134°59'1312.9
2015-Mar-16 16:33N 34°29' E 135°02'9 8.7
2015-Mar-16 15:33N 34°36' E 134°55'  

Dump ship's entire track history